Time;durP1;ratioP1;P1;durP2;ratioP2;P2;SDS_P1;SDS_P2;PMS_P1;PMS_P2;Temp;Humidity;BMP_temperature;BMP_pressure;BME280_temperature;BME280_humidity;BME280_pressure;Samples;Min_cycle;Max_cycle;Signal;HPM_P1;HPM_P2
2022/03/13 00:02:08;;;;;;;;;;;9.60;88.00;;;;;;5078100;28;19909;-77
2022/03/13 00:04:35;;;;;;;;;;;9.60;87.80;;;;;;5073290;28;20353;-77
2022/03/13 00:07:06;;;;;;;;;;;9.60;87.80;;;;;;5077489;28;19936;-77
2022/03/13 00:09:32;;;;;;;;;;;9.60;88.70;;;;;;5078195;28;19908;-77
2022/03/13 00:11:57;;;;;;;;;;;9.60;87.90;;;;;;5077853;28;19958;-77
2022/03/13 00:14:25;;;;;;;;;;;9.60;88.30;;;;;;5077917;28;19915;-77
2022/03/13 00:16:52;;;;;;;;;;;9.60;88.40;;;;;;5077722;28;19909;-77
2022/03/13 00:19:20;;;;;;;;;;;9.70;89.00;;;;;;5078065;28;19952;-77
2022/03/13 00:21:54;;;;;;;;;;;9.70;88.90;;;;;;5059517;28;19912;-77
2022/03/13 00:24:23;;;;;;;;;;;9.70;89.50;;;;;;5077589;28;19912;-77
2022/03/13 00:26:52;;;;;;;;;;;9.70;89.40;;;;;;5060135;28;19993;-77
2022/03/13 00:29:18;;;;;;;;;;;9.70;89.40;;;;;;5077918;28;19995;-78
2022/03/13 00:31:44;;;;;;;;;;;9.70;90.10;;;;;;5064653;28;19909;-77
2022/03/13 00:34:09;;;;;;;;;;;9.60;90.00;;;;;;5076764;28;19954;-77
2022/03/13 00:36:35;;;;;;;;;;;9.60;90.10;;;;;;5077262;28;20003;-77
2022/03/13 00:39:01;;;;;;;;;;;9.60;90.20;;;;;;5076574;28;19962;-76
2022/03/13 00:41:26;;;;;;;;;;;9.60;90.30;;;;;;5072200;28;20257;-76
2022/03/13 00:43:52;;;;;;;;;;;9.60;90.40;;;;;;5070018;28;19924;-77
2022/03/13 00:46:18;;;;;;;;;;;9.70;90.70;;;;;;5077351;28;20417;-77
2022/03/13 00:48:44;;;;;;;;;;;9.70;90.60;;;;;;5077554;28;19909;-77
2022/03/13 00:51:09;;;;;;;;;;;9.70;90.80;;;;;;5077178;28;19909;-77
2022/03/13 00:53:36;;;;;;;;;;;9.70;90.50;;;;;;5060129;28;20325;-77
2022/03/13 00:56:02;;;;;;;;;;;9.70;90.60;;;;;;5059265;28;19909;-77
2022/03/13 00:58:28;;;;;;;;;;;9.70;90.40;;;;;;5077552;28;19919;-76
2022/03/13 01:00:54;;;;;;;;;;;9.70;90.50;;;;;;5077379;28;19991;-76
2022/03/13 01:03:47;;;;;;;;;;;9.70;90.40;;;;;;5073388;28;19913;-78
2022/03/13 01:06:13;;;;;;;;;;;9.70;90.60;;;;;;5067751;28;19909;-77
2022/03/13 01:08:40;;;;;;;;;;;9.70;90.40;;;;;;5077346;28;19916;-77
2022/03/13 01:11:06;;;;;;;;;;;9.70;90.40;;;;;;5078424;28;19908;-77
2022/03/13 01:13:32;;;;;;;;;;;9.70;90.40;;;;;;5080143;28;20371;-77
2022/03/13 01:16:18;;;;;;;;;;;9.60;90.50;;;;;;5081177;28;19939;-76
2022/03/13 01:18:51;;;;;;;;;;;9.60;90.40;;;;;;5068663;28;19916;-77
2022/03/13 01:21:16;;;;;;;;;;;9.70;90.60;;;;;;5081008;28;19909;-76
2022/03/13 01:23:58;;;;;;;;;;;9.70;90.60;;;;;;5081036;28;19913;-76
2022/03/13 01:26:23;;;;;;;;;;;9.70;90.60;;;;;;5081035;28;19908;-76
2022/03/13 01:28:50;;;;;;;;;;;9.60;90.70;;;;;;5081009;28;20421;-76
2022/03/13 01:31:19;;;;;;;;;;;9.60;90.70;;;;;;5062881;28;20268;-76
2022/03/13 01:33:45;;;;;;;;;;;9.60;90.70;;;;;;5062828;28;19909;-76
2022/03/13 01:36:11;;;;;;;;;;;9.60;90.50;;;;;;5080495;28;19915;-76
2022/03/13 01:38:37;;;;;;;;;;;9.60;90.60;;;;;;5062906;28;19915;-76
2022/03/13 01:41:03;;;;;;;;;;;9.50;90.70;;;;;;5078077;28;19909;-76
2022/03/13 01:43:31;;;;;;;;;;;9.50;90.60;;;;;;5069745;28;20408;-76
2022/03/13 01:46:00;;;;;;;;;;;9.50;90.60;;;;;;5080644;28;19921;-76
2022/03/13 01:48:26;;;;;;;;;;;9.40;90.60;;;;;;5080918;28;19909;-76
2022/03/13 01:50:52;;;;;;;;;;;9.40;90.80;;;;;;5080397;28;19916;-76
2022/03/13 01:53:21;;;;;;;;;;;9.40;90.70;;;;;;5079771;28;19909;-76
2022/03/13 01:55:54;;;;;;;;;;;9.40;90.70;;;;;;5080194;28;19909;-76
2022/03/13 01:58:20;;;;;;;;;;;9.30;90.70;;;;;;5080619;28;19909;-76
2022/03/13 02:00:46;;;;;;;;;;;9.30;90.80;;;;;;5080245;28;19916;-76
2022/03/13 02:03:12;;;;;;;;;;;9.30;90.80;;;;;;5059531;28;19928;-76
2022/03/13 02:05:38;;;;;;;;;;;9.20;90.70;;;;;;5075411;28;19913;-76
2022/03/13 02:08:17;;;;;;;;;;;9.20;91.10;;;;;;5056964;28;19914;-76
2022/03/13 02:10:42;;;;;;;;;;;9.20;91.10;;;;;;5066934;28;20011;-76
2022/03/13 02:13:11;;;;;;;;;;;9.20;91.10;;;;;;5080149;28;19959;-76
2022/03/13 02:15:37;;;;;;;;;;;9.20;91.20;;;;;;5062642;28;19909;-76
2022/03/13 02:18:04;;;;;;;;;;;9.10;90.90;;;;;;5080209;28;19909;-76
2022/03/13 02:20:30;;;;;;;;;;;9.10;90.90;;;;;;5079946;28;19974;-76
2022/03/13 02:23:05;;;;;;;;;;;9.10;91.00;;;;;;5079222;28;19908;-76
2022/03/13 02:25:34;;;;;;;;;;;9.10;91.10;;;;;;5080020;28;19958;-76
2022/03/13 02:28:00;;;;;;;;;;;9.00;90.90;;;;;;5079966;28;20379;-76
2022/03/13 02:30:26;;;;;;;;;;;9.10;91.40;;;;;;5080095;28;19909;-76
2022/03/13 02:32:55;;;;;;;;;;;9.10;91.30;;;;;;5060609;28;19916;-76
2022/03/13 02:35:20;;;;;;;;;;;9.00;91.30;;;;;;5079700;28;20037;-76
2022/03/13 02:37:46;;;;;;;;;;;9.00;91.30;;;;;;5079570;28;19922;-76
2022/03/13 02:40:23;;;;;;;;;;;9.10;91.30;;;;;;5079578;28;19924;-76
2022/03/13 02:42:51;;;;;;;;;;;9.00;90.80;;;;;;5066168;28;19908;-76
2022/03/13 02:45:43;;;;;;;;;;;9.00;90.70;;;;;;5079515;28;19924;-76
2022/03/13 02:48:09;;;;;;;;;;;8.90;90.60;;;;;;5061671;28;19952;-76
2022/03/13 02:50:36;;;;;;;;;;;8.90;90.40;;;;;;5076812;28;20004;-76
2022/03/13 02:53:02;;;;;;;;;;;8.90;90.50;;;;;;5060940;28;19913;-76
2022/03/13 02:55:27;;;;;;;;;;;8.90;90.50;;;;;;5079234;28;19908;-76
2022/03/13 02:57:53;;;;;;;;;;;8.80;90.30;;;;;;5079377;28;20283;-76
2022/03/13 03:00:19;;;;;;;;;;;8.80;90.20;;;;;;5079301;28;19930;-76
2022/03/13 03:02:45;;;;;;;;;;;8.80;90.50;;;;;;5079292;28;19916;-76
2022/03/13 03:05:11;;;;;;;;;;;8.80;90.40;;;;;;5078272;28;19912;-76
2022/03/13 03:07:37;;;;;;;;;;;8.80;90.60;;;;;;5077620;28;20379;-76
2022/03/13 03:10:03;;;;;;;;;;;8.70;90.40;;;;;;5078982;28;20313;-76
2022/03/13 03:12:29;;;;;;;;;;;8.80;90.40;;;;;;5078849;28;19908;-76
2022/03/13 03:14:55;;;;;;;;;;;8.70;90.40;;;;;;5077971;28;20260;-76
2022/03/13 03:17:20;;;;;;;;;;;8.70;90.40;;;;;;5060963;28;20378;-77
2022/03/13 03:19:46;;;;;;;;;;;8.70;90.30;;;;;;5078670;28;20405;-76
2022/03/13 03:22:12;;;;;;;;;;;8.70;90.30;;;;;;5060901;28;19916;-77
2022/03/13 03:24:38;;;;;;;;;;;8.60;90.30;;;;;;5078660;28;19923;-77
2022/03/13 03:27:04;;;;;;;;;;;8.60;90.40;;;;;;5078838;28;19947;-76
2022/03/13 03:29:30;;;;;;;;;;;8.70;90.40;;;;;;5078758;28;19909;-76
2022/03/13 03:31:56;;;;;;;;;;;8.60;90.40;;;;;;5061241;28;19913;-76
2022/03/13 03:34:23;;;;;;;;;;;8.60;90.50;;;;;;5077617;28;19909;-77
2022/03/13 03:36:50;;;;;;;;;;;8.60;90.40;;;;;;5060298;28;19908;-77
2022/03/13 03:39:17;;;;;;;;;;;8.70;90.60;;;;;;5060060;28;20310;-76
2022/03/13 03:41:44;;;;;;;;;;;8.60;90.30;;;;;;5071012;28;19908;-76
2022/03/13 03:44:09;;;;;;;;;;;8.70;90.40;;;;;;5072900;28;20398;-77
2022/03/13 03:46:35;;;;;;;;;;;8.60;90.30;;;;;;5078309;28;19920;-77
2022/03/13 03:49:01;;;;;;;;;;;8.60;90.20;;;;;;5078445;28;19980;-76
2022/03/13 03:51:27;;;;;;;;;;;8.60;90.10;;;;;;5078333;28;19915;-76
2022/03/13 03:53:52;;;;;;;;;;;8.60;90.10;;;;;;5077221;28;19908;-76
2022/03/13 03:56:18;;;;;;;;;;;8.60;90.00;;;;;;5060366;28;19919;-76
2022/03/13 03:58:44;;;;;;;;;;;8.60;90.00;;;;;;5078051;28;19908;-76
2022/03/13 04:01:09;;;;;;;;;;;8.60;90.00;;;;;;5078081;28;19908;-76
2022/03/13 04:03:35;;;;;;;;;;;8.60;90.00;;;;;;5078000;28;20048;-76
2022/03/13 04:06:01;;;;;;;;;;;8.60;90.00;;;;;;5077977;28;19931;-76
2022/03/13 04:08:29;;;;;;;;;;;8.60;90.10;;;;;;5060112;28;19916;-76
2022/03/13 04:10:55;;;;;;;;;;;8.60;90.20;;;;;;5078014;28;19912;-76
2022/03/13 04:13:21;;;;;;;;;;;8.60;90.20;;;;;;5077638;28;19908;-76
2022/03/13 04:15:46;;;;;;;;;;;8.60;90.30;;;;;;5060019;28;19959;-76
2022/03/13 04:18:12;;;;;;;;;;;8.70;90.50;;;;;;5077809;28;19954;-76
2022/03/13 04:20:38;;;;;;;;;;;8.60;90.70;;;;;;5077789;28;19918;-76
2022/03/13 04:23:04;;;;;;;;;;;8.60;90.60;;;;;;5077575;28;19913;-77
2022/03/13 04:25:29;;;;;;;;;;;8.60;90.30;;;;;;5077770;28;20011;-77
2022/03/13 04:27:57;;;;;;;;;;;8.60;90.40;;;;;;5077763;28;20321;-75
2022/03/13 04:30:22;;;;;;;;;;;8.60;90.40;;;;;;5078031;28;19976;-76
2022/03/13 04:32:48;;;;;;;;;;;8.60;90.60;;;;;;5076603;28;20408;-75
2022/03/13 04:35:14;;;;;;;;;;;8.60;90.60;;;;;;5077344;28;20287;-75
2022/03/13 04:37:39;;;;;;;;;;;8.60;90.70;;;;;;5077666;28;19958;-75
2022/03/13 04:40:05;;;;;;;;;;;8.60;90.70;;;;;;5077719;28;19915;-75
2022/03/13 04:42:31;;;;;;;;;;;8.70;90.90;;;;;;5064194;28;19915;-76
2022/03/13 04:44:57;;;;;;;;;;;8.60;90.90;;;;;;5077151;28;19912;-76
2022/03/13 04:47:22;;;;;;;;;;;8.60;91.00;;;;;;5077536;28;19920;-76
2022/03/13 04:49:48;;;;;;;;;;;8.60;91.00;;;;;;5077489;28;20363;-76
2022/03/13 04:52:13;;;;;;;;;;;8.60;91.00;;;;;;5077530;28;19914;-76
2022/03/13 04:54:39;;;;;;;;;;;8.60;91.10;;;;;;5077581;28;19915;-75
2022/03/13 04:57:05;;;;;;;;;;;8.60;91.00;;;;;;5077470;28;19908;-75
2022/03/13 04:59:30;;;;;;;;;;;8.60;90.90;;;;;;5059587;28;19950;-76
2022/03/13 05:01:56;;;;;;;;;;;8.60;90.90;;;;;;5077529;28;19915;-77
2022/03/13 05:04:21;;;;;;;;;;;8.60;90.90;;;;;;5072514;28;19919;-77
2022/03/13 05:06:47;;;;;;;;;;;8.60;90.60;;;;;;5077057;28;19908;-76
2022/03/13 05:09:13;;;;;;;;;;;8.60;90.80;;;;;;5077522;28;19908;-77
2022/03/13 05:11:39;;;;;;;;;;;8.60;90.70;;;;;;5077522;28;20426;-76
2022/03/13 05:14:04;;;;;;;;;;;8.60;90.50;;;;;;5076116;28;20362;-78
2022/03/13 05:16:30;;;;;;;;;;;8.70;90.60;;;;;;5077412;28;19908;-77
2022/03/13 05:18:55;;;;;;;;;;;8.70;90.90;;;;;;5077336;28;19908;-78
2022/03/13 05:21:21;;;;;;;;;;;8.70;90.90;;;;;;5076970;28;19916;-79
2022/03/13 05:23:47;;;;;;;;;;;8.70;90.80;;;;;;5077387;28;20010;-78
2022/03/13 05:26:12;;;;;;;;;;;8.70;91.00;;;;;;5077181;28;19916;-76
2022/03/13 05:28:38;;;;;;;;;;;8.70;91.10;;;;;;5077330;28;19959;-76
2022/03/13 05:31:04;;;;;;;;;;;8.70;91.00;;;;;;5077097;28;19909;-77
2022/03/13 05:33:30;;;;;;;;;;;8.70;91.00;;;;;;5077134;28;19912;-76
2022/03/13 05:35:56;;;;;;;;;;;8.80;91.20;;;;;;5077129;28;19908;-77
2022/03/13 05:38:22;;;;;;;;;;;8.80;91.20;;;;;;5077436;28;19915;-77
2022/03/13 05:40:47;;;;;;;;;;;8.70;91.30;;;;;;5058018;28;19946;-77
2022/03/13 05:43:13;;;;;;;;;;;8.70;91.30;;;;;;5063814;28;19909;-77
2022/03/13 05:45:41;;;;;;;;;;;8.70;91.40;;;;;;5076977;28;19920;-77
2022/03/13 05:48:13;;;;;;;;;;;8.70;91.50;;;;;;5077278;28;19948;-77
2022/03/13 05:50:38;;;;;;;;;;;8.70;91.40;;;;;;5076724;28;19935;-77
2022/03/13 05:53:05;;;;;;;;;;;8.80;91.70;;;;;;5076110;28;20358;-77
2022/03/13 05:55:30;;;;;;;;;;;8.80;91.90;;;;;;5059022;28;19909;-76
2022/03/13 05:57:57;;;;;;;;;;;8.80;92.00;;;;;;5078788;28;19915;-76
2022/03/13 06:00:23;;;;;;;;;;;8.80;91.90;;;;;;5080385;28;20065;-77
2022/03/13 06:02:49;;;;;;;;;;;8.70;91.70;;;;;;5080427;28;20030;-77
2022/03/13 06:05:18;;;;;;;;;;;8.80;91.90;;;;;;5079920;28;20482;-77
2022/03/13 06:07:45;;;;;;;;;;;8.80;91.90;;;;;;5080383;28;19944;-77
2022/03/13 06:10:11;;;;;;;;;;;8.80;91.90;;;;;;5080247;28;20444;-77
2022/03/13 06:12:36;;;;;;;;;;;8.80;91.90;;;;;;5080235;28;19912;-77
2022/03/13 06:15:04;;;;;;;;;;;8.80;91.80;;;;;;5080076;28;19926;-77
2022/03/13 06:17:29;;;;;;;;;;;8.80;91.90;;;;;;5080241;28;19953;-77
2022/03/13 06:19:58;;;;;;;;;;;8.80;92.10;;;;;;5079942;28;19908;-77
2022/03/13 06:22:24;;;;;;;;;;;8.80;91.80;;;;;;5080273;28;20015;-77
2022/03/13 06:24:50;;;;;;;;;;;8.80;91.70;;;;;;5079831;28;19913;-77
2022/03/13 06:27:18;;;;;;;;;;;8.80;91.70;;;;;;5080065;28;19974;-77
2022/03/13 06:29:43;;;;;;;;;;;8.80;91.70;;;;;;5080073;28;19923;-77
2022/03/13 06:32:09;;;;;;;;;;;8.80;91.70;;;;;;5079969;28;20359;-77
2022/03/13 06:34:34;;;;;;;;;;;8.80;91.80;;;;;;5078743;28;20300;-77
2022/03/13 06:37:00;;;;;;;;;;;8.90;92.10;;;;;;5079442;28;19912;-77
2022/03/13 06:39:26;;;;;;;;;;;8.80;92.10;;;;;;5079465;28;20291;-77
2022/03/13 06:41:52;;;;;;;;;;;8.80;91.90;;;;;;5070879;28;19924;-77
2022/03/13 06:44:20;;;;;;;;;;;8.90;91.90;;;;;;5075380;28;19919;-77
2022/03/13 06:46:46;;;;;;;;;;;8.90;92.10;;;;;;5079374;28;19924;-77
2022/03/13 06:49:12;;;;;;;;;;;8.90;92.00;;;;;;5079536;28;19916;-77
2022/03/13 06:51:40;;;;;;;;;;;8.90;91.90;;;;;;5079344;28;19908;-77
2022/03/13 06:54:06;;;;;;;;;;;8.90;91.80;;;;;;5079296;28;19920;-74
2022/03/13 06:56:32;;;;;;;;;;;8.90;91.70;;;;;;5079199;28;19915;-78
2022/03/13 06:59:03;;;;;;;;;;;8.90;91.60;;;;;;5079137;28;20015;-79
2022/03/13 07:01:29;;;;;;;;;;;8.90;91.40;;;;;;5079528;28;19908;-79
2022/03/13 07:03:55;;;;;;;;;;;8.90;91.20;;;;;;5074380;28;19912;-80
2022/03/13 07:06:20;;;;;;;;;;;8.90;91.20;;;;;;5078997;28;19958;-80
2022/03/13 07:08:46;;;;;;;;;;;8.90;91.20;;;;;;5078882;28;19908;-76
2022/03/13 07:11:12;;;;;;;;;;;8.90;91.50;;;;;;5079322;28;19908;-79
2022/03/13 07:13:37;;;;;;;;;;;8.90;91.30;;;;;;5061132;28;19908;-78
2022/03/13 07:16:03;;;;;;;;;;;8.90;91.20;;;;;;5079346;28;19916;-80
2022/03/13 07:18:31;;;;;;;;;;;8.90;91.10;;;;;;5078902;28;19908;-77
2022/03/13 07:20:57;;;;;;;;;;;9.00;91.20;;;;;;5078627;28;20371;-79
2022/03/13 07:23:23;;;;;;;;;;;9.00;91.20;;;;;;5078694;28;19912;-73
2022/03/13 07:25:51;;;;;;;;;;;9.00;91.20;;;;;;5078796;28;19909;-77
2022/03/13 07:28:17;;;;;;;;;;;9.00;91.10;;;;;;5078706;28;19913;-76
2022/03/13 07:30:43;;;;;;;;;;;9.00;91.10;;;;;;5079030;28;20316;-76
2022/03/13 07:33:10;;;;;;;;;;;9.00;91.00;;;;;;5078444;28;20050;-76
2022/03/13 07:35:36;;;;;;;;;;;9.00;91.00;;;;;;5078383;28;19936;-78
2022/03/13 07:38:03;;;;;;;;;;;9.00;90.90;;;;;;5060699;28;20325;-77
2022/03/13 07:40:29;;;;;;;;;;;9.00;90.80;;;;;;5077773;28;19972;-76
2022/03/13 07:42:55;;;;;;;;;;;9.10;90.80;;;;;;5064745;28;19909;-78
2022/03/13 07:45:21;;;;;;;;;;;9.10;91.00;;;;;;5078298;28;19928;-76
2022/03/13 07:47:46;;;;;;;;;;;9.10;91.00;;;;;;5078542;28;19931;-74
2022/03/13 07:50:12;;;;;;;;;;;9.10;90.90;;;;;;5078314;28;19931;-72
2022/03/13 07:52:38;;;;;;;;;;;9.10;90.90;;;;;;5078139;28;20121;-76
2022/03/13 07:55:04;;;;;;;;;;;9.10;90.90;;;;;;5060164;28;19908;-74
2022/03/13 07:57:29;;;;;;;;;;;9.10;91.00;;;;;;5078069;28;19908;-72
2022/03/13 07:59:55;;;;;;;;;;;9.10;90.90;;;;;;5078484;28;19915;-74
2022/03/13 08:02:20;;;;;;;;;;;9.10;90.90;;;;;;5077935;28;19936;-76
2022/03/13 08:04:46;;;;;;;;;;;9.10;90.90;;;;;;5055816;28;19975;-77
2022/03/13 08:07:12;;;;;;;;;;;9.10;90.80;;;;;;5059940;28;19915;-71
2022/03/13 08:09:39;;;;;;;;;;;9.20;91.00;;;;;;5078023;28;19914;-74
2022/03/13 08:12:05;;;;;;;;;;;9.20;90.90;;;;;;5059863;28;19916;-70
2022/03/13 08:14:30;;;;;;;;;;;9.20;91.00;;;;;;5078026;28;20279;-71
2022/03/13 08:16:56;;;;;;;;;;;9.20;91.10;;;;;;5077719;28;19951;-77
2022/03/13 08:19:22;;;;;;;;;;;9.20;91.00;;;;;;5059680;28;19916;-76
2022/03/13 08:21:47;;;;;;;;;;;9.20;91.00;;;;;;5077364;28;19908;-74
2022/03/13 08:24:14;;;;;;;;;;;9.20;91.00;;;;;;5077611;28;19913;-79
2022/03/13 08:26:40;;;;;;;;;;;9.20;90.90;;;;;;5077657;28;20367;-76
2022/03/13 08:29:06;;;;;;;;;;;9.30;90.90;;;;;;5077793;28;20031;-77
2022/03/13 08:31:33;;;;;;;;;;;9.30;90.90;;;;;;5077731;28;19909;-77
2022/03/13 08:33:59;;;;;;;;;;;9.30;90.90;;;;;;5059811;28;20003;-77
2022/03/13 08:36:25;;;;;;;;;;;9.30;90.80;;;;;;5082633;28;19931;-77
2022/03/13 08:38:50;;;;;;;;;;;9.30;90.90;;;;;;5077623;28;20333;-78
2022/03/13 08:41:16;;;;;;;;;;;9.40;90.90;;;;;;5073302;28;19935;-78
2022/03/13 08:43:42;;;;;;;;;;;9.40;90.80;;;;;;5083642;28;20000;-77
2022/03/13 08:46:09;;;;;;;;;;;9.40;90.70;;;;;;5059339;28;19920;-78
2022/03/13 08:48:35;;;;;;;;;;;9.50;90.70;;;;;;5077627;28;19909;-75
2022/03/13 08:51:01;;;;;;;;;;;9.50;90.60;;;;;;5059240;28;19912;-78
2022/03/13 08:53:27;;;;;;;;;;;9.60;90.50;;;;;;5077516;28;19915;-76
2022/03/13 08:55:53;;;;;;;;;;;9.60;90.40;;;;;;5059507;28;19908;-75
2022/03/13 08:58:18;;;;;;;;;;;9.70;90.40;;;;;;5077647;28;19983;-76
2022/03/13 09:00:44;;;;;;;;;;;9.80;90.30;;;;;;5077486;28;19915;-76
2022/03/13 09:03:09;;;;;;;;;;;9.80;90.20;;;;;;5056991;28;19908;-78
2022/03/13 09:05:35;;;;;;;;;;;9.90;90.10;;;;;;5075117;28;19909;-77
2022/03/13 09:08:01;;;;;;;;;;;9.90;90.00;;;;;;5059305;28;19909;-76
2022/03/13 09:10:27;;;;;;;;;;;10.00;89.70;;;;;;5059413;28;19909;-75
2022/03/13 09:12:53;;;;;;;;;;;10.00;89.30;;;;;;5076997;28;19908;-77
2022/03/13 09:15:18;;;;;;;;;;;10.10;88.70;;;;;;5059349;28;19920;-76
2022/03/13 09:17:44;;;;;;;;;;;10.10;88.00;;;;;;5077496;28;19908;-76
2022/03/13 09:20:11;;;;;;;;;;;10.20;88.00;;;;;;5058833;28;19954;-77
2022/03/13 09:22:36;;;;;;;;;;;10.20;87.70;;;;;;5059233;28;19908;-77
2022/03/13 09:25:02;;;;;;;;;;;10.30;87.50;;;;;;5058975;28;19931;-79
2022/03/13 09:27:29;;;;;;;;;;;10.30;87.20;;;;;;5077318;28;19912;-79
2022/03/13 09:29:56;;;;;;;;;;;10.40;87.10;;;;;;5077027;28;20260;-80
2022/03/13 09:32:22;;;;;;;;;;;10.40;86.80;;;;;;5060357;28;19915;-80
2022/03/13 09:34:48;;;;;;;;;;;10.50;86.70;;;;;;5062397;28;19909;-79
2022/03/13 09:37:14;;;;;;;;;;;10.60;86.30;;;;;;5081144;28;19908;-79
2022/03/13 09:39:40;;;;;;;;;;;10.60;86.00;;;;;;5062724;28;19909;-79
2022/03/13 09:42:06;;;;;;;;;;;10.70;85.90;;;;;;5070002;28;19944;-78
2022/03/13 09:44:32;;;;;;;;;;;10.80;85.60;;;;;;5060207;28;20290;-76
2022/03/13 09:46:58;;;;;;;;;;;10.80;85.50;;;;;;5080678;28;19960;-75
2022/03/13 09:49:24;;;;;;;;;;;11.00;85.10;;;;;;5080376;28;19916;-77
2022/03/13 09:51:51;;;;;;;;;;;11.10;84.40;;;;;;5080571;28;20015;-76
2022/03/13 09:54:17;;;;;;;;;;;11.20;83.90;;;;;;5062741;28;19916;-76
2022/03/13 09:56:42;;;;;;;;;;;11.30;83.60;;;;;;5080686;28;19908;-74
2022/03/13 09:59:08;;;;;;;;;;;11.40;83.90;;;;;;5080627;28;19913;-75
2022/03/13 10:01:34;;;;;;;;;;;11.50;83.50;;;;;;5080418;28;19916;-77
2022/03/13 10:04:00;;;;;;;;;;;11.60;83.10;;;;;;5057463;28;19922;-75
2022/03/13 10:06:26;;;;;;;;;;;11.90;82.60;;;;;;5080125;28;20322;-74
2022/03/13 10:08:51;;;;;;;;;;;12.00;82.50;;;;;;5080018;28;19909;-74
2022/03/13 10:11:30;;;;;;;;;;;12.10;82.10;;;;;;5080341;28;20298;-75
2022/03/13 10:14:04;;;;;;;;;;;12.20;81.80;;;;;;5079846;28;20332;-75
2022/03/13 10:16:37;;;;;;;;;;;12.50;81.40;;;;;;5080190;28;19908;-75
2022/03/13 10:19:13;;;;;;;;;;;12.70;80.20;;;;;;5080286;28;19962;-77
2022/03/13 10:21:39;;;;;;;;;;;12.90;79.00;;;;;;5061986;28;19966;-75
2022/03/13 10:24:14;;;;;;;;;;;13.10;78.90;;;;;;5062115;28;19913;-78
2022/03/13 10:26:40;;;;;;;;;;;13.30;79.30;;;;;;5079719;28;20371;-80
2022/03/13 10:29:14;;;;;;;;;;;13.50;78.00;;;;;;5061939;28;19909;-81
2022/03/13 10:31:53;;;;;;;;;;;13.70;77.30;;;;;;5079662;28;20367;-79
2022/03/13 10:34:22;;;;;;;;;;;13.80;77.50;;;;;;5079626;28;19944;-78
2022/03/13 10:36:47;;;;;;;;;;;14.10;76.40;;;;;;5079697;28;19915;-76
2022/03/13 10:39:17;;;;;;;;;;;14.50;74.80;;;;;;5078685;28;19908;-76
2022/03/13 10:41:44;;;;;;;;;;;14.80;75.30;;;;;;5054107;28;19913;-77
2022/03/13 10:44:33;;;;;;;;;;;15.20;75.30;;;;;;5073042;28;20306;-77
2022/03/13 10:47:01;;;;;;;;;;;15.50;73.90;;;;;;5077846;28;19936;-76
2022/03/13 10:49:38;;;;;;;;;;;15.80;71.50;;;;;;5079064;28;19909;-76
2022/03/13 10:52:25;;;;;;;;;;;16.10;70.90;;;;;;5079489;28;19908;-74
2022/03/13 10:54:52;;;;;;;;;;;16.20;70.30;;;;;;5078689;28;19909;-73
2022/03/13 10:57:19;;;;;;;;;;;16.10;67.50;;;;;;5071872;28;19912;-73
2022/03/13 10:59:45;;;;;;;;;;;15.90;68.00;;;;;;5079277;28;19908;-74
2022/03/13 11:02:13;;;;;;;;;;;15.70;68.50;;;;;;5079025;28;19916;-75
2022/03/13 11:04:46;;;;;;;;;;;15.40;68.60;;;;;;5074037;28;20510;-75
2022/03/13 11:07:12;;;;;;;;;;;15.50;69.00;;;;;;5078864;28;20015;-73
2022/03/13 11:09:38;;;;;;;;;;;15.70;68.20;;;;;;5079079;28;19915;-79
2022/03/13 11:12:09;;;;;;;;;;;16.00;68.70;;;;;;5078182;28;19908;-76
2022/03/13 11:14:35;;;;;;;;;;;16.30;68.30;;;;;;5060653;28;19909;-77
2022/03/13 11:17:01;;;;;;;;;;;16.90;66.40;;;;;;5060391;28;19912;-76
2022/03/13 11:19:28;;;;;;;;;;;17.20;64.20;;;;;;5077982;28;20006;-75
2022/03/13 11:21:55;;;;;;;;;;;17.60;62.40;;;;;;5078111;28;19909;-76
2022/03/13 11:24:23;;;;;;;;;;;17.90;61.60;;;;;;5078730;28;19913;-75
2022/03/13 11:26:50;;;;;;;;;;;18.10;60.80;;;;;;5077729;28;19923;-75
2022/03/13 11:29:36;;;;;;;;;;;18.30;57.90;;;;;;5078740;28;19909;-75
2022/03/13 11:32:22;;;;;;;;;;;18.20;56.90;;;;;;5060517;28;19908;-77
2022/03/13 11:35:07;;;;;;;;;;;17.80;57.80;;;;;;5076682;28;20287;-77
2022/03/13 11:37:33;;;;;;;;;;;17.40;57.20;;;;;;5077875;28;19913;-79
2022/03/13 11:39:59;;;;;;;;;;;16.90;56.90;;;;;;5060291;28;19962;-76
2022/03/13 11:42:25;;;;;;;;;;;16.60;58.30;;;;;;5064794;28;19909;-79
2022/03/13 11:44:51;;;;;;;;;;;16.20;57.90;;;;;;5078070;28;20011;-75
2022/03/13 11:47:22;;;;;;;;;;;16.00;59.60;;;;;;5078216;28;19913;-72
2022/03/13 11:49:48;;;;;;;;;;;15.70;59.60;;;;;;5078114;28;19916;-72
2022/03/13 11:52:17;;;;;;;;;;;15.40;61.80;;;;;;5077906;28;19909;-75
2022/03/13 11:54:52;;;;;;;;;;;15.50;61.50;;;;;;5077446;28;19916;-75
2022/03/13 11:57:18;;;;;;;;;;;15.80;61.30;;;;;;5077617;28;19951;-73
2022/03/13 11:59:48;;;;;;;;;;;16.20;62.30;;;;;;5060184;28;19909;-74
2022/03/13 12:02:33;;;;;;;;;;;16.40;58.60;;;;;;5078145;28;19916;-74
2022/03/13 12:05:34;;;;;;;;;;;16.70;60.20;;;;;;5077442;28;20007;-75
2022/03/13 12:08:08;;;;;;;;;;;17.20;59.40;;;;;;4990563;28;19914;-75
2022/03/13 12:10:41;;;;;;;;;;;17.80;59.50;;;;;;5048062;28;19957;-73
2022/03/13 12:13:10;;;;;;;;;;;18.30;58.30;;;;;;5059696;28;20386;-71
2022/03/13 12:15:36;;;;;;;;;;;18.80;58.20;;;;;;5078153;28;19952;-68
2022/03/13 12:18:17;;;;;;;;;;;19.20;53.40;;;;;;5077838;28;20322;-69
2022/03/13 12:20:45;;;;;;;;;;;19.40;53.00;;;;;;5077701;28;19916;-71
2022/03/13 12:23:10;;;;;;;;;;;19.40;52.90;;;;;;5077607;28;19916;-70
2022/03/13 12:25:36;;;;;;;;;;;19.20;52.30;;;;;;5077815;28;20297;-73
2022/03/13 12:28:02;;;;;;;;;;;19.10;52.00;;;;;;5077989;28;19909;-75
2022/03/13 12:30:29;;;;;;;;;;;19.10;51.10;;;;;;5077229;28;19955;-72
2022/03/13 12:33:05;;;;;;;;;;;19.20;53.40;;;;;;5076739;28;19917;-71
2022/03/13 12:35:31;;;;;;;;;;;19.20;54.30;;;;;;5077635;28;19908;-72
2022/03/13 12:37:58;;;;;;;;;;;19.00;53.40;;;;;;5077766;28;19916;-72
2022/03/13 12:40:24;;;;;;;;;;;18.90;52.10;;;;;;5077040;28;19916;-77
2022/03/13 12:42:54;;;;;;;;;;;18.70;53.20;;;;;;5063983;28;19909;-73
2022/03/13 12:45:20;;;;;;;;;;;18.70;55.10;;;;;;5077044;28;19979;-74
2022/03/13 12:47:47;;;;;;;;;;;18.80;54.40;;;;;;5077318;28;20287;-73
2022/03/13 12:50:14;;;;;;;;;;;18.60;53.40;;;;;;5077325;28;19909;-74
2022/03/13 12:52:40;;;;;;;;;;;18.40;54.70;;;;;;5077562;28;19923;-74
2022/03/13 12:55:08;;;;;;;;;;;18.30;55.40;;;;;;5076220;28;20282;-73
2022/03/13 12:57:34;;;;;;;;;;;18.20;55.50;;;;;;5059462;28;19915;-73
2022/03/13 13:00:00;;;;;;;;;;;18.20;55.10;;;;;;5077687;28;19909;-72
2022/03/13 13:02:27;;;;;;;;;;;18.30;53.80;;;;;;5077458;28;20429;-73
2022/03/13 13:05:00;;;;;;;;;;;18.10;54.00;;;;;;5059041;28;19913;-74
2022/03/13 13:07:27;;;;;;;;;;;18.10;55.20;;;;;;5062451;28;19954;-74
2022/03/13 13:09:53;;;;;;;;;;;18.20;54.00;;;;;;5081544;28;19908;-73
2022/03/13 13:12:23;;;;;;;;;;;18.30;54.50;;;;;;5062921;28;19920;-74
2022/03/13 13:14:49;;;;;;;;;;;18.20;54.00;;;;;;5081500;28;19909;-74
2022/03/13 13:17:17;;;;;;;;;;;18.20;55.60;;;;;;5081655;28;19908;-74
2022/03/13 13:19:47;;;;;;;;;;;18.00;55.80;;;;;;5063492;28;20355;-74
2022/03/13 13:22:13;;;;;;;;;;;17.70;56.50;;;;;;5081486;28;19909;-74
2022/03/13 13:24:52;;;;;;;;;;;17.20;56.50;;;;;;5081028;28;19974;-75
2022/03/13 13:27:30;;;;;;;;;;;16.90;58.60;;;;;;5081590;28;19915;-75
2022/03/13 13:29:55;;;;;;;;;;;17.00;60.20;;;;;;5081072;28;19912;-75
2022/03/13 13:32:25;;;;;;;;;;;17.00;60.40;;;;;;5081108;28;19991;-74
2022/03/13 13:35:00;;;;;;;;;;;17.10;60.00;;;;;;5080697;28;19909;-74
2022/03/13 13:37:26;;;;;;;;;;;17.00;59.30;;;;;;5081008;28;19908;-74
2022/03/13 13:40:09;;;;;;;;;;;16.90;59.10;;;;;;5080090;28;20009;-74
2022/03/13 13:42:39;;;;;;;;;;;16.70;60.10;;;;;;5067237;28;19909;-74
2022/03/13 13:45:23;;;;;;;;;;;16.50;60.10;;;;;;5080826;28;20007;-73
2022/03/13 13:47:52;;;;;;;;;;;16.40;60.10;;;;;;5080788;28;19942;-74
2022/03/13 13:50:18;;;;;;;;;;;16.30;59.50;;;;;;5080707;28;19909;-74
2022/03/13 13:52:44;;;;;;;;;;;16.20;59.80;;;;;;5080612;28;20017;-74
2022/03/13 13:55:22;;;;;;;;;;;16.30;60.00;;;;;;5080739;28;19930;-74
2022/03/13 13:58:08;;;;;;;;;;;16.20;59.80;;;;;;5067769;28;19916;-74
2022/03/13 14:00:34;;;;;;;;;;;16.00;59.70;;;;;;5080464;28;20253;-74
2022/03/13 14:02:59;;;;;;;;;;;15.60;59.70;;;;;;5080657;28;20017;-74
2022/03/13 14:05:25;;;;;;;;;;;15.60;60.30;;;;;;5080222;28;19916;-75
2022/03/13 14:07:51;;;;;;;;;;;15.50;60.30;;;;;;5080787;28;20342;-74
2022/03/13 14:10:16;;;;;;;;;;;15.40;60.70;;;;;;5080312;28;19909;-75
2022/03/13 14:12:47;;;;;;;;;;;15.40;61.60;;;;;;5080461;28;19908;-74
2022/03/13 14:15:12;;;;;;;;;;;15.40;62.00;;;;;;5080332;28;19909;-74
2022/03/13 14:17:38;;;;;;;;;;;15.40;62.00;;;;;;5079978;28;20390;-75
2022/03/13 14:20:04;;;;;;;;;;;15.20;62.70;;;;;;5080028;28;19909;-75
2022/03/13 14:22:33;;;;;;;;;;;15.00;67.00;;;;;;5080463;28;19931;-74
2022/03/13 14:24:59;;;;;;;;;;;14.90;69.20;;;;;;5079870;28;20398;-74
2022/03/13 14:27:24;;;;;;;;;;;14.90;70.10;;;;;;5080481;28;19909;-74
2022/03/13 14:29:50;;;;;;;;;;;14.90;70.00;;;;;;5080088;28;19950;-74